Time;durP1;ratioP1;P1;durP2;ratioP2;P2;SDS_P1;SDS_P2;PMS_P1;PMS_P2;Temp;Humidity;BMP_temperature;BMP_pressure;BME280_temperature;BME280_humidity;BME280_pressure;Samples;Min_cycle;Max_cycle;Signal;HPM_P1;HPM_P2
2022/11/10 00:00:55;;;;;;;1.75;1.17;;;13.80;99.90;;;;;;7385579;19;20154;-75
2022/11/10 00:03:21;;;;;;;2.35;1.25;;;13.90;99.90;;;;;;7385262;19;20160;-77
2022/11/10 00:05:47;;;;;;;0.93;0.90;;;14.00;99.90;;;;;;7385791;19;20127;-76
2022/11/10 00:08:22;;;;;;;1.15;0.98;;;13.90;99.90;;;;;;7383247;19;20150;-78
2022/11/10 00:10:56;;;;;;;1.30;1.20;;;13.70;99.90;;;;;;7384784;19;20157;-76
2022/11/10 00:16:59;;;;;;;1.92;1.10;;;13.80;99.90;;;;;;7387219;19;20150;-76
2022/11/10 00:19:10;;;;;;;1.55;1.10;;;13.90;99.90;;;;;;7384819;19;20146;-77
2022/11/10 00:21:36;;;;;;;1.20;1.00;;;13.70;99.90;;;;;;7384343;19;20184;-76
2022/11/10 00:24:02;;;;;;;1.97;0.97;;;13.80;99.90;;;;;;7387821;19;20131;-75
2022/11/10 00:26:28;;;;;;;1.67;1.20;;;13.70;99.90;;;;;;7383763;19;20541;-76
2022/11/10 00:29:00;;;;;;;4.88;1.40;;;13.80;99.90;;;;;;7383266;19;20134;-77
2022/11/10 00:31:27;;;;;;;2.30;1.13;;;14.00;99.90;;;;;;7383182;19;20648;-76
2022/11/10 00:33:53;;;;;;;2.87;1.20;;;14.10;99.90;;;;;;7388804;19;20150;-76
2022/11/10 00:36:19;;;;;;;3.13;1.40;;;14.10;99.90;;;;;;7385833;19;20135;-76
2022/11/10 00:38:44;;;;;;;2.65;1.30;;;14.20;99.90;;;;;;7385602;19;20134;-75
2022/11/10 00:41:10;;;;;;;2.15;1.40;;;14.20;99.90;;;;;;7387787;19;20142;-76
2022/11/10 00:43:36;;;;;;;3.40;1.50;;;14.10;99.90;;;;;;7386504;19;20578;-75
2022/11/10 00:46:02;;;;;;;1.65;1.30;;;14.10;99.90;;;;;;7386884;19;20961;-75
2022/11/10 00:48:27;;;;;;;2.97;2.03;;;14.10;99.90;;;;;;7387608;19;20541;-76
2022/11/10 00:50:53;;;;;;;1.83;1.20;;;14.10;99.90;;;;;;7385182;19;20138;-75
2022/11/10 00:53:19;;;;;;;2.53;1.10;;;14.10;99.90;;;;;;7386920;19;20230;-76
2022/11/10 00:55:45;;;;;;;1.70;1.10;;;13.90;99.90;;;;;;7386752;19;20163;-74
2022/11/10 00:58:11;;;;;;;2.05;1.25;;;14.00;99.90;;;;;;7384426;19;20150;-76
2022/11/10 01:00:36;;;;;;;2.03;1.20;;;14.10;99.90;;;;;;7385164;19;20138;-76
2022/11/10 01:03:02;;;;;;;2.47;1.20;;;14.00;99.90;;;;;;7386816;19;20150;-75
2022/11/10 01:05:29;;;;;;;2.95;1.17;;;14.10;99.90;;;;;;7389116;19;20156;-77
2022/11/10 01:07:58;;;;;;;2.15;1.25;;;13.90;99.90;;;;;;7387175;19;20161;-75
2022/11/10 01:10:24;;;;;;;3.22;1.13;;;13.90;99.90;;;;;;7389278;19;20141;-74
2022/11/10 01:12:50;;;;;;;6.07;1.13;;;13.80;99.90;;;;;;7385998;19;20150;-76
2022/11/10 01:15:16;;;;;;;3.25;1.10;;;13.90;99.90;;;;;;7386384;19;20142;-76
2022/11/10 01:17:41;;;;;;;3.38;1.15;;;13.80;99.90;;;;;;7386161;19;20134;-76
2022/11/10 01:20:08;;;;;;;3.50;1.10;;;13.70;99.90;;;;;;7384144;19;20138;-76
2022/11/10 01:22:34;;;;;;;2.53;1.10;;;13.80;99.90;;;;;;7388746;19;20138;-76
2022/11/10 01:25:00;;;;;;;1.43;1.00;;;13.80;99.90;;;;;;7387282;19;20138;-74
2022/11/10 01:27:26;;;;;;;5.70;1.38;;;13.90;99.90;;;;;;7385534;19;20150;-75
2022/11/10 01:29:51;;;;;;;1.67;1.07;;;13.80;99.90;;;;;;7385124;19;20146;-75
2022/11/10 01:32:17;;;;;;;1.58;1.00;;;13.80;99.90;;;;;;7386036;19;20246;-75
2022/11/10 01:34:43;;;;;;;3.05;1.10;;;13.90;99.90;;;;;;7385198;19;20470;-76
2022/11/10 01:37:10;;;;;;;3.45;1.40;;;13.90;99.90;;;;;;7385573;19;20155;-77
2022/11/10 01:39:36;;;;;;;2.63;1.00;;;13.80;99.90;;;;;;7384792;19;20135;-75
2022/11/10 01:42:02;;;;;;;2.07;1.10;;;13.90;99.90;;;;;;7386454;19;20156;-76
2022/11/10 01:44:28;;;;;;;3.83;1.17;;;13.90;99.90;;;;;;7385502;19;20154;-75
2022/11/10 01:46:54;;;;;;;3.17;1.17;;;13.90;99.90;;;;;;7385404;19;20879;-76
2022/11/10 01:49:23;;;;;;;1.95;0.93;;;14.00;99.90;;;;;;7385685;19;20147;-77
2022/11/10 01:51:57;;;;;;;2.40;1.08;;;13.90;99.90;;;;;;7386258;19;20138;-77
2022/11/10 01:54:28;;;;;;;2.75;1.23;;;14.00;99.90;;;;;;7387568;19;20569;-77
2022/11/10 01:57:01;;;;;;;4.10;1.25;;;13.90;99.90;;;;;;7384482;19;20177;-78
2022/11/10 01:59:30;;;;;;;3.87;1.20;;;13.70;99.90;;;;;;7384261;19;20147;-76
2022/11/10 02:02:05;;;;;;;3.53;1.23;;;13.70;99.90;;;;;;7384563;19;20139;-76
2022/11/10 02:04:32;;;;;;;3.20;1.00;;;13.50;99.90;;;;;;7383403;19;20142;-75
2022/11/10 02:06:58;;;;;;;1.75;1.15;;;13.50;99.90;;;;;;7385728;19;20180;-75
2022/11/10 02:09:24;;;;;;;5.33;1.30;;;13.60;99.90;;;;;;7385328;19;20139;-77
2022/11/10 02:11:52;;;;;;;4.97;1.63;;;13.60;99.90;;;;;;7386791;19;20734;-75
2022/11/10 02:14:17;;;;;;;2.05;1.00;;;13.60;99.90;;;;;;7393259;19;20130;-76
2022/11/10 02:16:43;;;;;;;4.45;1.40;;;13.70;99.90;;;;;;7387993;19;20622;-77
2022/11/10 02:19:18;;;;;;;3.57;1.23;;;13.50;99.90;;;;;;7393520;19;20608;-76
2022/11/10 02:21:46;;;;;;;3.67;1.60;;;13.60;99.90;;;;;;7391911;19;20134;-77
2022/11/10 02:24:13;;;;;;;6.07;1.50;;;13.60;99.90;;;;;;7389809;19;20151;-77
2022/11/10 02:26:49;;;;;;;2.55;1.10;;;13.60;99.90;;;;;;7392916;19;20138;-76
2022/11/10 02:29:22;;;;;;;2.75;1.20;;;13.70;99.90;;;;;;7391502;19;20193;-76
2022/11/10 02:31:48;;;;;;;4.50;1.57;;;13.50;99.90;;;;;;7392792;19;20604;-76
2022/11/10 02:34:14;;;;;;;4.33;1.27;;;13.50;99.90;;;;;;7392698;19;20232;-75
2022/11/10 02:36:40;;;;;;;1.70;1.00;;;13.50;99.90;;;;;;7392097;19;20130;-76
2022/11/10 02:39:05;;;;;;;3.63;1.40;;;13.50;99.90;;;;;;7390587;19;20154;-77
2022/11/10 02:41:31;;;;;;;4.23;1.20;;;13.40;99.90;;;;;;7391011;19;20166;-75
2022/11/10 02:43:57;;;;;;;2.43;1.00;;;13.40;99.90;;;;;;7390528;19;20667;-77
2022/11/10 02:46:23;;;;;;;4.40;1.30;;;13.40;99.90;;;;;;7391527;19;20138;-75
2022/11/10 02:48:49;;;;;;;2.93;1.23;;;13.50;99.90;;;;;;7389874;19;20523;-77
2022/11/10 02:51:15;;;;;;;2.07;1.07;;;13.50;99.90;;;;;;7390025;19;20228;-76
2022/11/10 02:53:41;;;;;;;2.67;1.27;;;13.30;99.90;;;;;;7389881;19;20141;-75
2022/11/10 02:56:07;;;;;;;3.57;1.27;;;13.40;99.90;;;;;;7391133;19;20226;-75
2022/11/10 02:58:33;;;;;;;5.07;1.27;;;13.50;99.90;;;;;;7383968;19;20271;-74
2022/11/10 03:00:58;;;;;;;3.47;1.10;;;13.50;99.90;;;;;;7387222;19;20532;-76
2022/11/10 03:03:24;;;;;;;5.53;1.57;;;13.40;99.90;;;;;;7385807;19;20154;-75
2022/11/10 03:05:50;;;;;;;7.07;1.65;;;13.10;99.90;;;;;;7388254;19;20135;-75
2022/11/10 03:08:15;;;;;;;4.47;1.30;;;13.20;99.90;;;;;;7383096;19;20135;-76
2022/11/10 03:10:41;;;;;;;2.83;1.40;;;13.20;99.90;;;;;;7387289;19;20154;-75
2022/11/10 03:13:10;;;;;;;3.38;1.05;;;13.10;99.90;;;;;;7387297;19;20142;-75
2022/11/10 03:15:36;;;;;;;2.43;1.23;;;13.10;99.90;;;;;;7387642;19;20218;-77
2022/11/10 03:18:03;;;;;;;5.95;1.13;;;13.30;99.90;;;;;;7386361;19;20210;-76
2022/11/10 03:20:29;;;;;;;2.45;1.30;;;13.20;99.90;;;;;;7387687;19;20143;-74
2022/11/10 03:23:00;;;;;;;3.47;1.23;;;13.20;99.90;;;;;;7391475;19;20154;-75
2022/11/10 03:25:26;;;;;;;2.77;1.27;;;13.20;99.90;;;;;;7389275;19;20138;-75
2022/11/10 03:27:52;;;;;;;2.63;1.40;;;13.40;99.90;;;;;;7389120;19;20568;-76
2022/11/10 03:30:17;;;;;;;6.20;1.47;;;13.50;99.90;;;;;;7390802;19;20142;-75
2022/11/10 03:32:43;;;;;;;3.20;1.40;;;13.40;99.90;;;;;;7391528;19;20221;-77
2022/11/10 03:35:09;;;;;;;3.00;1.43;;;13.40;99.90;;;;;;7391169;19;20579;-75
2022/11/10 03:37:35;;;;;;;3.08;1.45;;;13.50;99.90;;;;;;7389245;19;20158;-75
2022/11/10 03:40:01;;;;;;;5.27;2.00;;;13.40;99.90;;;;;;7388017;19;20259;-75
2022/11/10 03:42:27;;;;;;;1.57;1.00;;;13.20;99.90;;;;;;7391278;19;20238;-75
2022/11/10 03:44:52;;;;;;;1.30;1.10;;;13.30;99.90;;;;;;7389062;19;20221;-77
2022/11/10 03:47:18;;;;;;;3.80;1.30;;;13.20;99.90;;;;;;7388127;19;20667;-76
2022/11/10 03:49:44;;;;;;;4.30;1.27;;;13.20;99.90;;;;;;7391678;19;20139;-83
2022/11/10 03:52:10;;;;;;;4.07;1.60;;;13.00;99.90;;;;;;7392086;19;20723;-82
2022/11/10 03:54:35;;;;;;;2.40;1.20;;;13.20;99.90;;;;;;7389492;19;20135;-82
2022/11/10 03:57:01;;;;;;;5.50;1.50;;;13.10;99.90;;;;;;7387144;19;20155;-81
2022/11/10 03:59:27;;;;;;;3.57;1.30;;;13.10;99.90;;;;;;7387410;19;20142;-82
2022/11/10 04:01:53;;;;;;;4.23;1.57;;;13.10;99.90;;;;;;7388641;19;20134;-80
2022/11/10 04:10:00;;;;;;;2.13;1.30;;;13.20;99.90;;;;;;7389371;19;20202;-81
2022/11/10 04:18:19;;;;;;;3.63;1.40;;;13.20;99.90;;;;;;7388578;19;20138;-81
2022/11/10 04:20:44;;;;;;;4.10;1.20;;;13.10;99.90;;;;;;7384935;19;20735;-82
2022/11/10 04:23:26;;;;;;;2.13;0.93;;;13.10;99.90;;;;;;7385501;19;20154;-83
2022/11/10 04:28:52;;;;;;;2.37;1.33;;;12.80;99.90;;;;;;7390480;19;20612;-83
2022/11/10 04:31:20;;;;;;;4.43;1.10;;;12.60;99.90;;;;;;7390718;19;20154;-83
2022/11/10 04:33:48;;;;;;;4.67;1.77;;;12.60;99.90;;;;;;7388225;19;20131;-82
2022/11/10 04:36:18;;;;;;;3.63;1.10;;;12.60;99.90;;;;;;7387307;19;20901;-83
2022/11/10 04:38:44;;;;;;;2.20;1.20;;;12.70;99.90;;;;;;7387066;19;20146;-83
2022/11/10 04:41:10;;;;;;;3.83;1.30;;;12.60;99.90;;;;;;7386862;19;20146;-81
2022/11/10 04:43:37;;;;;;;3.13;1.40;;;12.90;99.90;;;;;;7388458;19;20146;-81
2022/11/10 04:46:04;;;;;;;3.50;1.47;;;12.80;99.90;;;;;;7389094;19;20129;-81
2022/11/10 04:48:31;;;;;;;3.83;1.60;;;12.80;99.90;;;;;;7386479;19;20919;-80
2022/11/10 04:51:05;;;;;;;2.40;1.43;;;12.70;99.90;;;;;;7387543;19;20165;-82
2022/11/10 04:53:31;;;;;;;2.67;1.67;;;12.70;99.90;;;;;;7387715;19;20134;-83
2022/11/10 04:55:57;;;;;;;2.77;1.20;;;12.60;99.90;;;;;;7387977;19;20139;-81
2022/11/10 04:58:23;;;;;;;3.77;1.43;;;12.70;99.90;;;;;;7380083;19;20198;-82
2022/11/10 05:00:48;;;;;;;3.53;1.30;;;12.70;99.90;;;;;;7384538;19;20150;-79
2022/11/10 05:03:14;;;;;;;1.73;1.33;;;12.70;99.90;;;;;;7386459;19;20135;-81
2022/11/10 05:05:41;;;;;;;3.50;1.50;;;12.60;99.90;;;;;;7386581;19;20163;-82
2022/11/10 05:08:07;;;;;;;2.10;1.37;;;12.50;99.90;;;;;;7384720;19;20142;-83
2022/11/10 05:10:34;;;;;;;3.30;1.20;;;12.40;99.90;;;;;;7385606;19;20138;-81
2022/11/10 05:13:00;;;;;;;2.47;1.30;;;12.20;99.90;;;;;;7385712;19;20612;-82
2022/11/10 05:15:26;;;;;;;3.00;1.40;;;12.20;99.90;;;;;;7387504;19;20158;-82
2022/11/10 05:17:53;;;;;;;2.27;1.63;;;12.20;99.90;;;;;;7384908;19;20714;-82
2022/11/10 05:20:22;;;;;;;3.63;1.30;;;12.40;99.90;;;;;;7384199;19;20143;-82
2022/11/10 05:25:39;;;;;;;2.70;1.37;;;12.50;99.90;;;;;;7385572;19;20145;-84
2022/11/10 05:28:08;;;;;;;2.43;1.53;;;12.40;99.90;;;;;;7385656;19;20147;-81
2022/11/10 05:30:34;;;;;;;2.07;1.60;;;12.50;99.90;;;;;;7384222;19;20613;-82
2022/11/10 05:33:01;;;;;;;3.43;1.70;;;12.40;99.90;;;;;;7384348;19;20754;-83
2022/11/10 05:35:27;;;;;;;2.80;1.73;;;12.40;99.90;;;;;;7384452;19;20151;-82
2022/11/10 05:37:52;;;;;;;2.83;1.50;;;12.40;99.90;;;;;;7384288;19;20140;-80
2022/11/10 05:40:18;;;;;;;2.53;1.30;;;12.20;99.90;;;;;;7382942;19;20134;-79
2022/11/10 05:42:46;;;;;;;3.53;1.60;;;12.00;99.90;;;;;;7385465;19;20626;-82
2022/11/10 05:45:12;;;;;;;3.70;1.43;;;12.00;99.90;;;;;;7386087;19;20781;-82
2022/11/10 05:47:39;;;;;;;3.33;1.60;;;12.00;99.90;;;;;;7387536;19;20146;-83
2022/11/10 05:50:06;;;;;;;4.53;1.40;;;12.00;99.90;;;;;;7391542;19;20163;-81
2022/11/10 05:52:32;;;;;;;1.63;1.20;;;12.00;99.90;;;;;;7392800;19;20155;-83
2022/11/10 05:54:58;;;;;;;3.33;1.30;;;12.20;99.90;;;;;;7393202;19;20997;-83
2022/11/10 05:57:23;;;;;;;3.40;1.80;;;12.30;99.90;;;;;;7389449;19;20535;-82
2022/11/10 05:59:49;;;;;;;2.37;1.67;;;12.40;99.90;;;;;;7388544;19;20135;-82
2022/11/10 06:02:15;;;;;;;2.23;1.70;;;12.40;99.90;;;;;;7387961;19;20157;-82
2022/11/10 06:04:40;;;;;;;3.13;1.60;;;12.40;99.90;;;;;;7389106;19;20135;-81
2022/11/10 06:07:10;;;;;;;2.23;1.30;;;12.30;99.90;;;;;;7387697;19;20150;-84
2022/11/10 06:09:37;;;;;;;3.57;1.80;;;12.20;99.90;;;;;;7388789;19;20170;-83
2022/11/10 06:12:04;;;;;;;3.83;2.03;;;12.30;99.90;;;;;;7388557;19;20499;-81
2022/11/10 06:14:29;;;;;;;2.87;1.60;;;12.00;99.90;;;;;;7389973;19;20158;-82
2022/11/10 06:16:56;;;;;;;2.80;1.63;;;12.00;99.90;;;;;;7388757;19;20139;-80
2022/11/10 06:19:23;;;;;;;5.23;1.53;;;12.00;99.90;;;;;;7389594;19;20173;-82
2022/11/10 06:21:49;;;;;;;3.10;1.57;;;12.10;99.90;;;;;;7398735;19;20159;-82
2022/11/10 06:24:15;;;;;;;3.07;1.63;;;12.10;99.90;;;;;;7389720;19;20155;-82
2022/11/10 06:26:42;;;;;;;3.43;2.00;;;12.00;99.90;;;;;;7390347;19;20214;-83
2022/11/10 06:29:11;;;;;;;3.00;1.40;;;12.00;99.90;;;;;;7391262;19;20591;-82
2022/11/10 06:31:36;;;;;;;3.33;1.40;;;11.70;99.90;;;;;;7387657;19;20626;-82
2022/11/10 06:34:02;;;;;;;5.13;2.13;;;11.60;99.90;;;;;;7384490;19;20154;-83
2022/11/10 06:36:28;;;;;;;3.60;1.60;;;11.50;99.90;;;;;;7386929;19;20170;-84
2022/11/10 06:38:53;;;;;;;3.33;1.50;;;11.70;99.90;;;;;;7388973;19;20162;-82
2022/11/10 06:41:19;;;;;;;2.33;1.70;;;11.80;99.90;;;;;;7389779;19;20138;-82
2022/11/10 06:43:45;;;;;;;4.27;1.40;;;11.90;99.90;;;;;;7387593;19;20231;-82
2022/11/10 06:46:11;;;;;;;3.63;1.90;;;12.10;99.90;;;;;;7386892;19;20607;-83
2022/11/10 06:48:37;;;;;;;5.33;1.57;;;11.90;99.90;;;;;;7388995;19;20139;-82
2022/11/10 06:51:03;;;;;;;4.20;1.30;;;11.90;99.90;;;;;;7386238;19;20130;-84
2022/11/10 06:53:28;;;;;;;4.77;1.63;;;11.90;99.90;;;;;;7386979;19;20592;-82
2022/11/10 06:55:54;;;;;;;6.83;1.67;;;12.00;99.90;;;;;;7388646;19;20149;-80
2022/11/10 06:58:20;;;;;;;3.97;2.00;;;12.00;99.90;;;;;;7382634;19;20175;-80
2022/11/10 07:00:45;;;;;;;4.40;1.97;;;12.10;99.90;;;;;;7383418;19;20150;-81
2022/11/10 07:03:13;;;;;;;2.67;1.70;;;12.10;99.90;;;;;;7391505;19;20180;-82
2022/11/10 07:05:39;;;;;;;3.03;1.60;;;12.10;99.90;;;;;;7388355;19;20585;-82
2022/11/10 07:08:15;;;;;;;3.10;1.70;;;12.20;99.90;;;;;;7387732;19;20154;-80
2022/11/10 07:10:42;;;;;;;1.90;1.70;;;12.20;99.90;;;;;;7393980;19;20145;-82
2022/11/10 07:13:09;;;;;;;6.60;2.30;;;12.20;99.90;;;;;;7389502;19;20142;-81
2022/11/10 07:15:34;;;;;;;4.73;1.80;;;11.80;99.90;;;;;;7385752;19;20147;-80
2022/11/10 07:18:02;;;;;;;3.23;2.13;;;11.80;99.90;;;;;;7392021;19;20138;-79
2022/11/10 07:20:29;;;;;;;2.70;1.90;;;11.80;99.90;;;;;;7391378;19;20739;-82
2022/11/10 07:23:03;;;;;;;3.60;2.10;;;12.00;99.90;;;;;;7388092;19;20247;-79
2022/11/10 07:25:31;;;;;;;3.00;1.70;;;12.20;99.90;;;;;;7395212;19;20131;-80
2022/11/10 07:28:01;;;;;;;5.03;2.03;;;12.20;99.90;;;;;;7389857;19;20247;-80
2022/11/10 07:30:29;;;;;;;5.97;1.80;;;12.20;99.90;;;;;;7389743;19;20142;-80
2022/11/10 07:33:04;;;;;;;3.20;1.67;;;12.20;99.90;;;;;;7390354;19;20150;-79
2022/11/10 07:35:32;;;;;;;3.40;1.87;;;12.00;99.90;;;;;;7394083;19;20138;-82
2022/11/10 07:38:02;;;;;;;3.40;1.70;;;11.90;99.90;;;;;;7392062;19;20139;-82
2022/11/10 07:40:27;;;;;;;4.83;2.90;;;11.90;99.90;;;;;;7389688;19;20603;-81
2022/11/10 07:42:53;;;;;;;5.73;3.13;;;12.00;99.90;;;;;;7390565;19;20159;-80
2022/11/10 07:45:21;;;;;;;4.60;2.97;;;12.10;99.90;;;;;;7393496;19;20135;-80
2022/11/10 07:47:46;;;;;;;4.67;2.60;;;12.00;99.90;;;;;;7389652;19;20151;-82
2022/11/10 07:50:12;;;;;;;5.03;1.90;;;12.10;99.90;;;;;;7389844;19;20160;-79
2022/11/10 07:52:39;;;;;;;3.50;2.30;;;12.10;99.90;;;;;;7390939;19;20184;-79
2022/11/10 07:55:05;;;;;;;2.93;1.70;;;12.00;99.90;;;;;;7388858;19;20155;-80
2022/11/10 07:57:32;;;;;;;3.97;2.10;;;12.10;99.90;;;;;;7388637;19;20212;-79
2022/11/10 07:59:58;;;;;;;7.57;2.17;;;12.00;99.90;;;;;;7388807;19;20493;-81
2022/11/10 08:02:25;;;;;;;6.07;1.80;;;12.00;99.90;;;;;;7391166;19;20130;-81
2022/11/10 08:04:51;;;;;;;7.53;1.80;;;12.00;99.90;;;;;;7393724;19;20152;-81
2022/11/10 08:07:17;;;;;;;3.83;1.83;;;12.00;99.90;;;;;;7391013;19;20130;-80
2022/11/10 08:09:43;;;;;;;6.93;2.63;;;12.30;99.90;;;;;;7392828;19;20130;-80
2022/11/10 08:12:09;;;;;;;4.30;2.13;;;12.10;99.90;;;;;;7393961;19;20130;-81
2022/11/10 08:14:35;;;;;;;2.10;1.60;;;12.10;99.90;;;;;;7394272;19;20151;-82
2022/11/10 08:17:01;;;;;;;3.75;1.85;;;12.10;99.90;;;;;;7392311;19;20150;-80
2022/11/10 08:19:27;;;;;;;2.57;1.80;;;12.10;99.90;;;;;;7390387;19;20147;-80
2022/11/10 08:21:52;;;;;;;6.27;2.27;;;12.10;99.90;;;;;;7394880;19;20131;-79
2022/11/10 08:24:18;;;;;;;2.80;1.60;;;12.00;99.90;;;;;;7392885;19;20165;-79
2022/11/10 08:26:44;;;;;;;6.73;2.90;;;12.10;99.90;;;;;;7392619;19;20134;-79
2022/11/10 08:29:10;;;;;;;6.55;2.15;;;12.20;99.90;;;;;;7388825;19;20130;-80
2022/11/10 08:31:37;;;;;;;4.20;1.83;;;12.20;99.90;;;;;;7391518;19;20688;-80
2022/11/10 08:34:03;;;;;;;4.43;2.03;;;12.20;99.90;;;;;;7386271;19;20159;-82
2022/11/10 08:36:29;;;;;;;3.93;2.00;;;12.20;99.90;;;;;;7384513;19;20167;-78
2022/11/10 08:38:55;;;;;;;3.67;2.10;;;12.20;99.90;;;;;;7383287;19;20653;-80
2022/11/10 08:41:20;;;;;;;5.63;3.10;;;12.30;99.90;;;;;;7384651;19;20513;-80
2022/11/10 08:43:46;;;;;;;5.87;2.17;;;12.30;99.90;;;;;;7389726;19;20154;-80
2022/11/10 08:46:13;;;;;;;6.30;2.10;;;12.20;99.90;;;;;;7392079;19;20247;-79
2022/11/10 08:48:39;;;;;;;4.10;1.73;;;12.20;99.90;;;;;;7383952;19;20620;-79
2022/11/10 08:51:05;;;;;;;3.37;1.70;;;12.30;99.90;;;;;;7385058;19;20139;-79
2022/11/10 08:53:30;;;;;;;4.03;2.00;;;12.30;99.90;;;;;;7385667;19;20138;-79
2022/11/10 08:55:58;;;;;;;3.85;1.90;;;12.20;99.90;;;;;;7391482;19;20150;-82
2022/11/10 08:58:26;;;;;;;3.25;1.65;;;12.30;99.90;;;;;;7381533;19;20563;-81
2022/11/10 09:00:53;;;;;;;5.07;1.63;;;12.40;99.90;;;;;;7384996;19;20135;-82
2022/11/10 09:03:21;;;;;;;5.50;2.80;;;12.30;99.90;;;;;;7387113;19;20210;-81
2022/11/10 09:05:48;;;;;;;4.87;1.87;;;12.20;99.90;;;;;;7387463;19;20746;-81
2022/11/10 09:08:15;;;;;;;3.43;2.03;;;12.20;99.90;;;;;;7385066;19;20154;-81
2022/11/10 09:10:46;;;;;;;3.80;1.97;;;12.20;99.90;;;;;;7382397;19;20202;-80
2022/11/10 09:13:14;;;;;;;3.37;1.70;;;12.40;99.90;;;;;;7384328;19;20227;-80
2022/11/10 09:15:40;;;;;;;4.27;1.60;;;12.40;99.90;;;;;;7384470;19;20175;-81
2022/11/10 09:18:07;;;;;;;4.85;2.33;;;12.50;99.90;;;;;;7384351;19;20141;-80
2022/11/10 09:20:36;;;;;;;4.18;2.25;;;12.60;99.90;;;;;;7382237;19;20464;-79
2022/11/10 09:23:05;;;;;;;3.38;1.90;;;12.60;99.90;;;;;;7384285;19;20146;-80
2022/11/10 09:25:31;;;;;;;2.67;1.40;;;12.70;99.90;;;;;;7392603;19;20165;-81
2022/11/10 09:27:57;;;;;;;4.78;1.30;;;12.70;99.90;;;;;;7383205;19;20472;-81
2022/11/10 09:30:24;;;;;;;2.33;1.30;;;12.80;99.90;;;;;;7383568;19;20150;-79
2022/11/10 09:32:54;;;;;;;2.63;1.10;;;12.80;99.90;;;;;;7382775;19;20134;-80
2022/11/10 09:35:20;;;;;;;3.73;1.40;;;12.80;99.90;;;;;;7389543;19;20141;-80
2022/11/10 09:37:45;;;;;;;1.17;0.80;;;12.80;99.90;;;;;;7382941;19;20675;-80
2022/11/10 09:40:43;;;;;;;2.95;1.30;;;12.90;99.90;;;;;;7383675;19;20581;-81
2022/11/10 09:43:18;;;;;;;2.15;1.30;;;13.20;99.90;;;;;;7382852;19;20150;-81
2022/11/10 09:45:50;;;;;;;2.67;0.88;;;13.50;99.90;;;;;;7382377;19;20138;-80
2022/11/10 09:48:26;;;;;;;1.53;0.83;;;13.50;99.90;;;;;;7381055;19;20171;-79
2022/11/10 09:51:17;;;;;;;3.97;1.00;;;13.50;99.90;;;;;;7395236;19;20151;-81
2022/11/10 09:54:01;;;;;;;6.70;1.25;;;13.60;99.90;;;;;;7381631;19;20157;-79
2022/11/10 09:56:35;;;;;;;3.22;0.93;;;13.80;99.90;;;;;;7382030;19;20439;-81
2022/11/10 09:59:16;;;;;;;3.47;0.95;;;13.80;99.90;;;;;;7383473;19;20205;-80
2022/11/10 10:02:11;;;;;;;2.55;0.95;;;13.90;99.90;;;;;;7383372;19;20131;-81
2022/11/10 10:05:08;;;;;;;3.60;1.50;;;14.00;99.90;;;;;;7383124;19;20537;-82
2022/11/10 10:07:59;;;;;;;5.22;1.40;;;14.00;99.90;;;;;;7378704;19;20520;-79
2022/11/10 10:10:40;;;;;;;3.20;1.50;;;14.10;99.90;;;;;;7382821;19;20131;-79
2022/11/10 10:13:28;;;;;;;2.00;0.90;;;14.20;99.90;;;;;;7381420;19;20227;-80
2022/11/10 10:16:02;;;;;;;2.83;0.80;;;14.40;99.90;;;;;;7382969;19;20153;-80
2022/11/10 10:18:57;;;;;;;2.80;1.38;;;14.30;99.90;;;;;;7381108;19;20615;-81
2022/11/10 10:21:57;;;;;;;3.53;1.08;;;14.40;99.90;;;;;;7383238;19;20135;-80
2022/11/10 10:24:31;;;;;;;3.58;0.90;;;14.30;99.90;;;;;;7384239;19;20146;-79
2022/11/10 10:26:59;;;;;;;2.47;0.80;;;14.30;99.90;;;;;;7382736;19;20313;-80
2022/11/10 10:29:46;;;;;;;2.97;0.70;;;14.30;99.90;;;;;;7382623;19;20175;-79
2022/11/10 10:32:14;;;;;;;3.80;1.00;;;14.30;99.90;;;;;;7382014;19;20141;-80
2022/11/10 10:34:41;;;;;;;2.30;0.90;;;14.30;99.90;;;;;;7385758;19;20970;-81
2022/11/10 10:37:24;;;;;;;2.92;0.90;;;14.50;99.90;;;;;;7388599;19;20138;-80
2022/11/10 10:39:54;;;;;;;5.53;2.20;;;14.60;99.90;;;;;;7386744;19;20282;-80
2022/11/10 10:42:34;;;;;;;6.05;2.75;;;14.60;99.90;;;;;;7388794;19;20497;-80
2022/11/10 10:45:21;;;;;;;4.35;1.85;;;14.70;99.90;;;;;;7389308;19;20161;-80
2022/11/10 10:47:52;;;;;;;1.88;0.73;;;14.50;99.90;;;;;;7387313;19;20162;-81
2022/11/10 10:50:32;;;;;;;1.75;0.77;;;14.50;99.90;;;;;;7389382;19;20162;-80
2022/11/10 10:53:05;;;;;;;4.25;1.30;;;14.50;99.90;;;;;;7391587;19;20126;-80
2022/11/10 10:55:33;;;;;;;1.60;1.40;;;14.80;99.90;;;;;;7389014;19;20143;-81
2022/11/10 10:58:24;;;;;;;4.40;2.33;;;14.80;99.90;;;;;;7386604;19;20221;-80
2022/11/10 11:00:54;;;;;;;8.70;3.95;;;14.90;99.90;;;;;;7386430;19;20659;-79
2022/11/10 11:03:35;;;;;;;35.08;24.80;;;14.80;99.90;;;;;;7387270;19;20146;-81
2022/11/10 11:06:06;;;;;;;7.18;5.32;;;14.90;99.90;;;;;;7396733;19;20623;-81
2022/11/10 11:08:32;;;;;;;6.80;2.38;;;14.80;99.90;;;;;;7387042;19;20633;-81
2022/11/10 11:11:06;;;;;;;4.03;1.90;;;14.90;99.90;;;;;;7386317;19;20150;-80
2022/11/10 11:13:32;;;;;;;2.60;1.05;;;14.90;99.90;;;;;;7386941;19;20155;-81
2022/11/10 11:16:07;;;;;;;3.28;2.00;;;15.10;99.90;;;;;;7388336;19;20154;-81
2022/11/10 11:18:36;;;;;;;2.53;1.13;;;15.20;99.90;;;;;;7386692;19;20138;-81
2022/11/10 11:21:17;;;;;;;3.20;1.08;;;15.20;99.90;;;;;;7385153;19;20156;-79
2022/11/10 11:24:08;;;;;;;1.92;1.42;;;15.20;99.90;;;;;;7390057;19;20484;-82
2022/11/10 11:26:50;;;;;;;6.43;2.13;;;15.40;99.90;;;;;;7387991;19;20147;-81
2022/11/10 11:29:57;;;;;;;5.15;2.58;;;15.40;99.90;;;;;;7387564;19;20151;-81
2022/11/10 11:32:40;;;;;;;2.90;1.63;;;15.50;99.90;;;;;;7385246;19;20138;-82
2022/11/10 11:35:18;;;;;;;3.35;1.23;;;15.60;99.90;;;;;;7387608;19;20127;-84
2022/11/10 11:37:53;;;;;;;3.08;1.13;;;15.60;99.90;;;;;;7387569;19;20707;-82
2022/11/10 11:40:40;;;;;;;4.35;1.23;;;15.60;99.90;;;;;;7384394;19;20130;-81
2022/11/10 11:43:33;;;;;;;3.58;1.75;;;15.60;99.90;;;;;;7388509;19;20136;-82
2022/11/10 11:46:11;;;;;;;9.57;6.25;;;15.70;99.90;;;;;;7384657;19;20138;-82
2022/11/10 11:48:56;;;;;;;15.80;6.90;;;15.80;99.90;;;;;;7388938;19;20139;-80
2022/11/10 11:51:51;;;;;;;2.47;1.45;;;15.80;99.90;;;;;;7385640;19;20142;-83
2022/11/10 11:54:33;;;;;;;3.60;1.50;;;15.90;99.90;;;;;;7385310;19;20268;-84
2022/11/10 11:57:15;;;;;;;2.78;1.80;;;15.90;99.90;;;;;;7387949;19;20146;-82
2022/11/10 11:59:54;;;;;;;2.70;0.90;;;16.00;99.90;;;;;;7388068;19;20615;-83
2022/11/10 12:02:47;;;;;;;3.30;1.02;;;16.00;99.90;;;;;;7385854;19;20147;-81
2022/11/10 12:05:35;;;;;;;1.77;1.00;;;16.20;99.90;;;;;;7387209;19;20171;-81
2022/11/10 12:08:22;;;;;;;2.10;0.90;;;16.10;99.90;;;;;;7391505;19;20149;-81
2022/11/10 12:11:16;;;;;;;4.13;2.20;;;16.10;99.90;;;;;;7403034;19;20130;-81
2022/11/10 12:14:05;;;;;;;3.40;1.70;;;16.10;99.90;;;;;;7388599;19;20191;-82
2022/11/10 12:16:33;;;;;;;4.93;2.80;;;16.00;99.90;;;;;;7387901;19;20138;-81
2022/11/10 12:19:20;;;;;;;3.25;2.05;;;16.10;99.90;;;;;;7404165;19;20154;-81
2022/11/10 12:22:09;;;;;;;1.83;0.93;;;16.00;99.90;;;;;;7393748;19;20146;-82
2022/11/10 12:24:47;;;;;;;1.80;0.73;;;16.00;99.90;;;;;;7387404;19;20151;-83
2022/11/10 12:27:18;;;;;;;1.70;0.65;;;16.10;99.90;;;;;;7385802;19;20564;-82
2022/11/10 12:30:00;;;;;;;3.00;1.10;;;16.20;99.90;;;;;;7386371;19;20141;-82
2022/11/10 12:32:52;;;;;;;2.63;0.80;;;16.20;99.90;;;;;;7386661;19;20166;-81
2022/11/10 12:35:32;;;;;;;1.35;0.70;;;16.20;99.90;;;;;;7386875;19;20145;-82
2022/11/10 12:38:10;;;;;;;1.80;0.68;;;16.40;99.90;;;;;;7385929;19;20139;-81
2022/11/10 12:40:45;;;;;;;2.92;1.10;;;16.30;99.90;;;;;;7381708;19;20158;-80
2022/11/10 12:43:25;;;;;;;1.40;1.02;;;16.40;99.90;;;;;;7384612;19;20142;-79
2022/11/10 12:45:56;;;;;;;4.38;1.40;;;16.40;99.90;;;;;;7384871;19;20154;-82
2022/11/10 12:48:24;;;;;;;1.98;1.42;;;16.40;99.90;;;;;;7384350;19;20154;-82
2022/11/10 12:51:09;;;;;;;2.05;1.00;;;16.30;99.90;;;;;;7384997;19;20140;-81
2022/11/10 12:53:38;;;;;;;1.92;0.90;;;16.30;99.90;;;;;;7384142;19;20178;-82
2022/11/10 12:56:31;;;;;;;1.08;0.73;;;16.20;99.90;;;;;;7385292;19;20146;-82
2022/11/10 12:59:33;;;;;;;2.15;0.90;;;16.30;99.90;;;;;;7382787;19;20528;-80
2022/11/10 13:02:16;;;;;;;2.58;0.68;;;16.40;99.90;;;;;;7385874;19;20159;-79
2022/11/10 13:04:42;;;;;;;1.73;1.13;;;16.40;99.90;;;;;;7384265;19;20161;-82
2022/11/10 13:07:11;;;;;;;1.67;0.50;;;16.50;99.90;;;;;;7383779;19;20138;-81
2022/11/10 13:09:42;;;;;;;1.10;0.90;;;16.60;99.90;;;;;;7390108;19;20151;-80
2022/11/10 13:12:22;;;;;;;3.08;0.85;;;16.60;99.90;;;;;;7385177;19;20159;-80
2022/11/10 13:14:48;;;;;;;2.28;1.00;;;16.50;99.90;;;;;;7385231;19;20142;-81
2022/11/10 13:17:26;;;;;;;2.30;0.80;;;16.60;99.90;;;;;;7384120;19;20153;-81
2022/11/10 13:19:57;;;;;;;4.18;1.00;;;16.50;99.90;;;;;;7383270;19;20158;-80
2022/11/10 13:22:35;;;;;;;2.95;0.88;;;16.40;99.90;;;;;;7381809;19;20162;-81